Aérodrome :
LOGIN :

S'inscrire | Disclaimer

   EN    FR    IT 

 










Légende :    VFR   VFR Marginal   IFR   IFR Intensif   IFR Très Intensif
Visi : 
Plafond : 
>= 8 km
>= 3000ft
5 à 8 km
1000 à 3000 ft
1500m à 5 km
500 à 1000 ft
800 à 1500m
200 à 500 ft
< 800m
< 200 ft
Symboles :   Orages  Brouillard  Fortes neiges  Fortes précipitations  Vent > 20 kt
SIGMETs :   Divers  Orages  Givrage  Turbulence  Onde Orograph.  Cendres Volcan.






- Altitude de l'aérodrome : 336 ft
- Code IATA : GCI


EGJB - Guernsey

DERNIER METAR :
  • 140520Z 25009KT 4000 BR FEW002 SCT004 BKN009 18/18 Q1013

METARs EXPIRÉS :
  • 140450Z 27007KT 3000 BR FEW001 BKN003 18/18 Q1013
  • 140420Z 25007KT 3000 BR SCT001 BKN003 18/18 Q1013
  • 140350Z 26007KT 3000 BR SCT001 BKN003 18/18 Q1013
  • 140320Z 27007KT 2500 BR BKN001 18/18 Q1013
  • 140250Z 26008KT 2500 BR BKN001 18/18 Q1013

TAF TAF EGJB
Valide du 14 à 06h jusqu'au 14 à 15h UTC


140504Z 1406/1415 26010KT 3000 BR FEW001 BKN003
TEMPO 1406/1415 0300 FG OVC000
PROB40
TEMPO 1406/1415 8000 NSW BKN015
PROB30
TEMPO 1406/1415 SHRA BKN015CB
ATIS : +44 1481 238 957



MET'MAP, la Météo Aéronautique d'un coup d'oeil ! - Copyright ORBIFLY Décembre 2007 - Disclaimer

ORBIFLY MET'MAP TEAM :

Programmation & Développement : Alexandra Zaïnal
Sur une idée originale de : Baudouin d'Aumeries
Assistance à la programmation : Marc-Olivier Méhu
Soutien technique & logistique : Manuel Goepfert

Contact : metmap@orbifly.com




SOURCES & CREDITS :

   NOAA